createdAt,value
2017-11-23T00:00:39.422Z,67.97
2017-11-23T00:03:08.348Z,62.50
2017-11-23T00:05:36.009Z,55.40
2017-11-23T00:08:03.681Z,79.47
2017-11-23T00:10:32.265Z,80.62
2017-11-23T00:12:59.868Z,69.60
2017-11-23T00:15:29.442Z,80.75
2017-11-23T00:17:57.095Z,60.80
2017-11-23T00:20:26.532Z,74.62
2017-11-23T00:22:54.173Z,73.53
2017-11-23T00:25:53.177Z,91.22
2017-11-23T00:28:21.958Z,107.87
2017-11-23T00:30:50.446Z,95.62
2017-11-23T00:33:18.130Z,104.75
2017-11-23T00:35:46.597Z,115.60
2017-11-23T00:45:03.829Z,104.40
2017-11-23T00:47:31.639Z,108.28
2017-11-23T00:49:59.302Z,86.15
2017-11-23T00:52:26.989Z,77.62
2017-11-23T00:54:54.611Z,79.90
2017-11-23T00:57:23.084Z,73.65
2017-11-23T00:59:50.840Z,59.88
2017-11-23T01:02:19.911Z,73.32
2017-11-23T01:04:47.545Z,77.40
2017-11-23T01:07:15.209Z,76.75
2017-11-23T01:09:42.940Z,74.60
2017-11-23T01:12:10.548Z,110.75
2017-11-23T01:14:38.928Z,147.43
2017-11-23T01:17:06.570Z,134.55
2017-11-23T01:19:34.217Z,142.00
2017-11-23T01:25:02.379Z,130.85
2017-11-23T01:27:30.040Z,130.37
2017-11-23T01:29:57.899Z,163.90
2017-11-23T01:32:25.709Z,164.30
2017-11-23T01:34:54.304Z,112.28
2017-11-23T01:37:22.802Z,115.50
2017-11-23T01:39:50.471Z,103.28
2017-11-23T01:42:18.186Z,64.37
2017-11-23T01:44:46.475Z,65.32
2017-11-23T01:47:15.507Z,67.40
2017-11-23T01:49:43.271Z,73.00
2017-11-23T01:52:12.328Z,79.53
2017-11-23T01:54:42.912Z,82.68
2017-11-23T01:57:11.473Z,78.65
2017-11-23T01:59:43.058Z,88.85
2017-11-23T02:02:10.778Z,114.43
2017-11-23T02:04:38.436Z,123.93
2017-11-23T02:07:07.405Z,125.30
2017-11-23T02:09:35.281Z,131.02
2017-11-23T02:12:03.014Z,118.85
2017-11-23T02:14:30.706Z,109.60
2017-11-23T02:16:58.351Z,114.50
2017-11-23T02:19:26.688Z,117.47
2017-11-23T02:21:54.393Z,107.03
2017-11-23T02:24:22.201Z,110.45
2017-11-23T02:26:52.170Z,87.80
2017-11-23T02:29:22.519Z,94.82
2017-11-23T02:31:55.212Z,63.22
2017-11-23T02:34:22.899Z,65.85
2017-11-23T02:36:50.713Z,64.47
2017-11-23T02:39:18.486Z,78.10
2017-11-23T02:41:46.874Z,94.30
2017-11-23T03:16:17.371Z,96.53
2017-11-23T03:18:45.841Z,94.00
2017-11-23T03:21:16.988Z,100.50
2017-11-23T03:23:44.886Z,95.80
2017-11-23T03:26:12.820Z,92.62
2017-11-23T03:28:43.778Z,94.82
2017-11-23T03:31:11.643Z,87.72
2017-11-23T03:58:14.589Z,88.85
2017-11-23T04:01:09.469Z,83.53
2017-11-23T04:10:34.739Z,89.62
2017-11-23T04:13:02.503Z,87.93
2017-11-23T04:15:30.110Z,89.95
2017-11-23T04:17:57.699Z,87.00
2017-11-23T04:20:25.510Z,87.82
2017-11-23T04:22:53.133Z,93.65
2017-11-23T04:25:20.895Z,98.95
2017-11-23T04:27:48.649Z,97.35
2017-11-23T04:30:16.292Z,90.20
2017-11-23T04:32:43.980Z,95.93
2017-11-23T04:35:17.150Z,85.10
2017-11-23T04:37:44.967Z,94.45
2017-11-23T04:40:12.611Z,87.43
2017-11-23T04:42:49.147Z,90.60
2017-11-23T04:45:16.862Z,93.10
2017-11-23T04:58:15.247Z,84.80
2017-11-23T05:00:43.721Z,99.97
2017-11-23T05:03:21.977Z,94.32
2017-11-23T05:05:49.563Z,89.57
2017-11-23T05:11:42.765Z,87.62
2017-11-23T05:14:13.106Z,100.18
2017-11-23T05:16:40.667Z,104.90
2017-11-23T05:19:09.191Z,99.03
2017-11-23T05:21:36.797Z,96.40
2017-11-23T05:24:04.845Z,103.55
2017-11-23T05:26:32.395Z,86.35
2017-11-23T05:29:02.747Z,99.32
2017-11-23T05:31:30.370Z,93.32
2017-11-23T05:33:57.995Z,98.07
2017-11-23T05:36:25.539Z,92.30
2017-11-23T05:38:53.206Z,98.55
2017-11-23T05:41:20.772Z,100.25
2017-11-23T05:43:48.543Z,75.57
2017-11-23T05:46:16.130Z,78.93
2017-11-23T05:48:43.701Z,77.43
2017-11-23T05:51:11.239Z,77.03
2017-11-23T05:53:40.288Z,71.57
2017-11-23T05:56:07.886Z,80.30
2017-11-23T05:58:35.444Z,67.53
2017-11-23T06:01:03.041Z,65.87
2017-11-23T06:03:30.603Z,80.17
2017-11-23T06:05:58.166Z,106.20
2017-11-23T06:08:25.743Z,144.10
2017-11-23T06:10:53.897Z,155.03
2017-11-23T06:13:21.697Z,124.43
2017-11-23T06:15:49.332Z,103.40
2017-11-23T06:18:17.141Z,114.20
2017-11-23T06:20:44.805Z,123.13
2017-11-23T06:23:12.714Z,133.47
2017-11-23T06:25:40.368Z,116.60
2017-11-23T06:28:08.588Z,117.20
2017-11-23T06:30:36.218Z,127.03
2017-11-23T06:33:03.997Z,153.27
2017-11-23T06:35:31.647Z,118.20
2017-11-23T06:37:59.441Z,112.17
2017-11-23T06:40:27.264Z,80.40
2017-11-23T06:42:54.904Z,56.67
2017-11-23T06:45:22.536Z,58.40
2017-11-23T06:47:50.105Z,64.23
2017-11-23T06:50:18.480Z,66.90
2017-11-23T06:52:46.221Z,80.07
2017-11-23T06:55:13.980Z,79.50
2017-11-23T06:57:41.507Z,62.00
2017-11-23T07:00:09.230Z,62.00
2017-11-23T07:02:36.985Z,60.03
2017-11-23T07:05:04.748Z,62.57
2017-11-23T07:07:32.931Z,66.47
2017-11-23T07:10:00.546Z,68.83
2017-11-23T07:12:28.358Z,69.23
2017-11-23T07:14:56.158Z,61.43
2017-11-23T07:17:23.903Z,66.13
2017-11-23T07:19:52.355Z,55.73
2017-11-23T07:22:20.636Z,55.37
2017-11-23T07:24:48.734Z,62.37
2017-11-23T07:27:16.551Z,57.20
2017-11-23T07:29:44.160Z,64.27
2017-11-23T07:32:11.835Z,65.33
2017-11-23T07:34:39.456Z,73.67
2017-11-23T07:37:07.675Z,72.60
2017-11-23T07:39:35.450Z,74.27
2017-11-23T07:42:03.106Z,67.27
2017-11-23T07:44:30.768Z,76.23
2017-11-23T07:46:58.373Z,54.93
2017-11-23T07:49:26.136Z,71.10
2017-11-23T07:51:54.525Z,66.20
2017-11-23T07:54:22.331Z,75.70
2017-11-23T07:56:49.857Z,76.63
2017-11-23T07:59:17.400Z,73.43
2017-11-23T08:01:46.696Z,73.23
2017-11-23T08:04:14.276Z,69.93
2017-11-23T08:06:51.910Z,69.27
2017-11-23T08:09:19.672Z,63.20
2017-11-23T08:11:49.160Z,66.20
2017-11-23T08:14:16.738Z,67.23
2017-11-23T08:16:44.271Z,64.50
2017-11-23T08:19:12.108Z,61.37
2017-11-23T08:21:39.893Z,54.53
2017-11-23T08:24:07.642Z,60.77
2017-11-23T08:26:35.699Z,53.30
2017-11-23T08:29:03.302Z,55.53
2017-11-23T08:31:32.051Z,54.20
2017-11-23T08:33:59.596Z,53.90
2017-11-23T08:36:27.260Z,53.87
2017-11-23T08:38:54.861Z,55.33
2017-11-23T08:41:23.149Z,62.23
2017-11-23T08:43:51.015Z,56.30
2017-11-23T08:46:18.615Z,56.27
2017-11-23T08:48:46.367Z,58.30
2017-11-23T08:51:14.131Z,52.93
2017-11-23T08:53:41.882Z,57.17
2017-11-23T08:56:09.756Z,54.90
2017-11-23T08:58:37.535Z,63.30
2017-11-23T09:01:05.156Z,58.90
2017-11-23T09:03:32.709Z,51.00
2017-11-23T09:06:00.464Z,52.87
2017-11-23T09:08:28.277Z,53.37
2017-11-23T09:10:56.081Z,58.87
2017-11-23T09:13:23.684Z,53.17
2017-11-23T09:15:51.316Z,52.50
2017-11-23T09:18:19.111Z,52.40
2017-11-23T09:20:46.695Z,49.53
2017-11-23T09:23:14.382Z,52.10
2017-11-23T09:25:41.998Z,55.30
2017-11-23T09:28:10.413Z,51.30
2017-11-23T09:30:38.151Z,60.00
2017-11-23T09:33:05.941Z,56.83
2017-11-23T09:35:34.162Z,66.20
2017-11-23T09:38:01.943Z,55.30
2017-11-23T09:40:29.934Z,66.10
2017-11-23T09:42:57.765Z,56.07
2017-11-23T09:45:25.338Z,49.67
2017-11-23T09:47:53.849Z,41.40
2017-11-23T09:50:21.395Z,50.80
2017-11-23T09:52:49.106Z,46.73
2017-11-23T09:55:16.938Z,47.67
2017-11-23T09:57:44.679Z,42.50
2017-11-23T10:00:12.455Z,48.67
2017-11-23T10:02:40.861Z,47.23
2017-11-23T10:05:09.037Z,45.80
2017-11-23T10:07:36.736Z,43.00
2017-11-23T10:10:05.351Z,57.83
2017-11-23T10:12:33.420Z,46.20
2017-11-23T10:15:01.345Z,45.43
2017-11-23T10:17:28.879Z,42.93
2017-11-23T10:19:56.665Z,53.70
2017-11-23T10:22:24.325Z,41.40
2017-11-23T10:24:52.141Z,51.13
2017-11-23T10:27:19.945Z,61.63
2017-11-23T10:29:47.678Z,46.90
2017-11-23T10:32:16.186Z,43.13
2017-11-23T10:34:44.013Z,47.73
2017-11-23T10:37:11.774Z,40.87
2017-11-23T10:39:39.478Z,45.47
2017-11-23T10:42:07.254Z,44.83
2017-11-23T10:44:35.030Z,57.00
2017-11-23T10:47:02.826Z,39.40
2017-11-23T10:49:30.892Z,43.00
2017-11-23T10:51:58.671Z,42.30
2017-11-23T10:54:26.266Z,40.20
2017-11-23T10:56:53.787Z,46.50
2017-11-23T10:59:21.307Z,45.60
2017-11-23T11:01:49.582Z,50.20
2017-11-23T11:04:17.353Z,46.13
2017-11-23T11:06:45.177Z,40.50
2017-11-23T11:09:12.799Z,41.33
2017-11-23T11:11:41.834Z,40.33
2017-11-23T11:14:09.360Z,45.93
2017-11-23T11:16:37.111Z,37.73
2017-11-23T11:19:06.438Z,43.73
2017-11-23T11:21:34.935Z,40.43
2017-11-23T11:24:04.052Z,46.73
2017-11-23T11:26:31.991Z,41.73
2017-11-23T11:29:01.733Z,37.17
2017-11-23T11:31:29.480Z,36.87
2017-11-23T11:33:57.028Z,34.10
2017-11-23T11:36:24.826Z,34.37
2017-11-23T11:38:52.421Z,36.53
2017-11-23T11:41:20.192Z,39.90
2017-11-23T11:43:47.845Z,34.83
2017-11-23T11:46:16.133Z,34.43
2017-11-23T11:48:44.276Z,38.30
2017-11-23T11:51:12.580Z,31.40
2017-11-23T11:53:40.399Z,32.70
2017-11-23T11:56:08.416Z,35.03
2017-11-23T11:58:35.963Z,37.70
2017-11-23T12:01:03.642Z,31.70
2017-11-23T12:03:31.236Z,31.67
2017-11-23T12:05:58.822Z,41.13
2017-11-23T12:08:26.538Z,33.27
2017-11-23T12:10:54.319Z,35.37
2017-11-23T12:13:22.864Z,37.77
2017-11-23T12:16:02.152Z,33.37
2017-11-23T12:18:41.343Z,29.30
2017-11-23T12:24:11.904Z,31.40
2017-11-23T12:26:39.509Z,31.23
2017-11-23T12:29:18.875Z,28.83
2017-11-23T12:31:46.475Z,27.13
2017-11-23T12:34:14.058Z,30.93
2017-11-23T12:36:41.651Z,29.40
2017-11-23T12:39:09.317Z,28.30
2017-11-23T12:41:36.914Z,28.90
2017-11-23T12:44:05.280Z,27.70
2017-11-23T12:46:33.451Z,28.07
2017-11-23T12:49:01.043Z,28.83
2017-11-23T12:51:28.656Z,35.77
2017-11-23T12:53:56.350Z,34.50
2017-11-23T12:56:24.006Z,32.97
2017-11-23T12:58:51.685Z,21.53
2017-11-23T13:01:19.388Z,25.00
2017-11-23T13:03:47.082Z,17.57
2017-11-23T13:06:14.714Z,22.87
2017-11-23T13:08:42.338Z,26.10
2017-11-23T13:11:09.895Z,24.40
2017-11-23T13:13:37.520Z,21.43
2017-11-23T13:16:05.554Z,18.07
2017-11-23T13:18:33.400Z,23.77
2017-11-23T13:21:01.229Z,25.83
2017-11-23T13:23:28.919Z,25.40
2017-11-23T13:25:56.547Z,27.63
2017-11-23T13:28:24.349Z,22.50
2017-11-23T13:30:51.933Z,29.83
2017-11-23T13:33:19.498Z,28.63
2017-11-23T13:35:47.123Z,28.43
2017-11-23T13:38:14.680Z,37.67
2017-11-23T13:40:42.301Z,23.43
2017-11-23T13:43:09.924Z,23.17
2017-11-23T13:45:37.555Z,27.33
2017-11-23T13:48:05.195Z,21.97
2017-11-23T13:50:33.253Z,25.33
2017-11-23T13:53:01.100Z,25.83
2017-11-23T13:55:29.075Z,28.20
2017-11-23T13:57:56.731Z,27.33
2017-11-23T14:00:24.653Z,21.93
2017-11-23T14:02:52.253Z,26.73
2017-11-23T14:05:19.847Z,28.13
2017-11-23T14:07:48.424Z,29.57
2017-11-23T14:10:15.969Z,25.13
2017-11-23T14:12:43.637Z,26.73
2017-11-23T14:15:11.288Z,29.03
2017-11-23T14:17:39.315Z,21.80
2017-11-23T14:20:07.965Z,28.67
2017-11-23T14:22:35.665Z,22.67
2017-11-23T14:25:03.248Z,31.83
2017-11-23T14:27:30.835Z,31.83
2017-11-23T14:29:58.604Z,37.30
2017-11-23T14:32:26.975Z,32.13
2017-11-23T14:34:54.653Z,38.23
2017-11-23T14:37:22.262Z,41.60
2017-11-23T14:39:49.871Z,40.30
2017-11-23T14:42:17.457Z,34.47
2017-11-23T14:44:45.385Z,36.87
2017-11-23T14:47:13.197Z,55.77
2017-11-23T14:49:40.819Z,53.87
2017-11-23T14:52:08.462Z,51.37
2017-11-23T14:54:36.523Z,43.80
2017-11-23T14:57:04.130Z,50.00
2017-11-23T14:59:32.559Z,69.33
2017-11-23T15:02:00.241Z,64.40
2017-11-23T15:04:28.691Z,85.40
2017-11-23T15:06:56.347Z,70.57
2017-11-23T15:09:24.076Z,95.50
2017-11-23T15:11:51.634Z,82.03
2017-11-23T15:14:19.397Z,63.37
2017-11-23T15:16:47.136Z,67.00
2017-11-23T15:19:15.457Z,70.87
2017-11-23T15:21:43.082Z,66.20
2017-11-23T15:24:10.855Z,64.60
2017-11-23T15:26:38.540Z,63.10
2017-11-23T15:29:06.162Z,63.37
2017-11-23T15:31:34.222Z,61.73
2017-11-23T15:34:01.960Z,66.73
2017-11-23T15:36:29.848Z,74.27
2017-11-23T15:38:57.650Z,77.30
2017-11-23T15:41:25.504Z,69.03
2017-11-23T15:43:53.166Z,80.93
2017-11-23T15:46:20.936Z,94.03
2017-11-23T15:48:48.852Z,109.77
2017-11-23T15:51:16.563Z,118.07
2017-11-23T15:53:44.378Z,82.87
2017-11-23T15:56:12.071Z,79.73
2017-11-23T15:58:41.384Z,77.43
2017-11-23T16:01:09.071Z,90.53
2017-11-23T16:03:37.948Z,91.67
2017-11-23T16:06:05.586Z,101.47
2017-11-23T16:08:33.235Z,119.50
2017-11-23T16:11:02.733Z,111.60
2017-11-23T16:13:31.248Z,123.00
2017-11-23T16:15:59.545Z,126.30
2017-11-23T16:18:27.163Z,105.60
2017-11-23T16:20:54.750Z,104.73
2017-11-23T16:23:22.558Z,202.63
2017-11-23T16:25:50.293Z,152.80
2017-11-23T16:28:17.864Z,127.17
2017-11-23T16:30:45.826Z,80.83
2017-11-23T16:33:16.195Z,73.83
2017-11-23T16:35:43.925Z,111.87
2017-11-23T16:38:16.231Z,123.00
2017-11-23T16:40:44.005Z,112.30
2017-11-23T16:46:36.585Z,123.73
2017-11-23T16:49:10.088Z,122.37
2017-11-23T16:51:58.185Z,144.20
2017-11-23T16:54:31.955Z,149.27
2017-11-23T16:57:05.984Z,132.73
2017-11-23T16:59:39.202Z,158.03
2017-11-23T17:02:15.302Z,166.97
2017-11-23T17:04:48.968Z,140.63
2017-11-23T17:07:22.339Z,141.20
2017-11-23T17:13:01.512Z,118.07
2017-11-23T17:15:36.416Z,128.20
2017-11-23T17:31:43.017Z,146.77
2017-11-23T17:34:10.659Z,144.87
2017-11-23T17:36:39.506Z,143.80
2017-11-23T17:39:07.607Z,153.27
2017-11-23T17:41:35.343Z,163.70
2017-11-23T17:44:03.016Z,193.50
2017-11-23T19:34:40.051Z,269.13
2017-11-23T19:37:07.831Z,276.17
2017-11-23T19:39:36.046Z,253.40
2017-11-23T19:42:03.643Z,279.20
2017-11-23T19:44:31.551Z,278.20
2017-11-23T19:47:00.542Z,279.43
2017-11-23T19:49:28.327Z,286.57
2017-11-23T19:51:56.315Z,300.23
2017-11-23T19:54:24.031Z,297.00
2017-11-23T19:56:51.813Z,299.50
2017-11-23T19:59:19.544Z,294.97
2017-11-23T20:01:47.638Z,252.70
2017-11-23T20:04:16.103Z,289.63
2017-11-23T20:06:43.753Z,272.20
2017-11-23T20:09:11.501Z,277.10
2017-11-23T20:11:39.395Z,289.53
2017-11-23T20:14:08.084Z,248.90
2017-11-23T20:16:35.824Z,246.00
2017-11-23T20:19:04.700Z,244.23
2017-11-23T20:21:32.369Z,229.00
2017-11-23T20:24:02.463Z,235.83
2017-11-23T20:26:32.099Z,240.23
2017-11-23T20:29:00.334Z,250.87
2017-11-23T20:31:28.981Z,240.03
2017-11-23T20:33:56.815Z,226.50
2017-11-23T20:36:24.363Z,237.77
2017-11-23T20:38:52.022Z,211.83
2017-11-23T20:41:19.648Z,203.27
2017-11-23T20:43:47.290Z,237.70
2017-11-23T20:46:15.004Z,246.40
2017-11-23T20:48:42.614Z,279.33
2017-11-23T20:51:16.238Z,251.87
2017-11-23T20:53:45.991Z,217.63
2017-11-23T20:56:15.293Z,223.50
2017-11-23T20:58:43.299Z,218.17
2017-11-23T21:01:11.002Z,206.70
2017-11-23T21:03:39.519Z,219.63
2017-11-23T21:06:07.569Z,218.73
2017-11-23T21:08:42.758Z,209.03
2017-11-23T21:11:10.487Z,214.30
2017-11-23T21:13:48.369Z,185.10
2017-11-23T21:16:16.230Z,163.67
2017-11-23T21:18:45.148Z,169.70
2017-11-23T21:21:13.374Z,189.60
2017-11-23T21:23:42.777Z,190.03
2017-11-23T21:26:10.483Z,183.70
2017-11-23T21:28:39.551Z,198.80
2017-11-23T21:31:07.283Z,194.30
2017-11-23T21:33:35.064Z,208.23
2017-11-23T21:36:02.707Z,190.27
2017-11-23T21:38:30.371Z,225.23
2017-11-23T21:41:00.259Z,201.87
2017-11-23T21:43:27.947Z,187.00
2017-11-23T21:45:55.957Z,188.70
2017-11-23T21:48:23.821Z,183.33
2017-11-23T21:50:51.776Z,191.93
2017-11-23T21:53:19.864Z,201.93
2017-11-23T21:55:51.204Z,214.83
2017-11-23T21:58:18.769Z,223.83
2017-11-23T22:00:46.318Z,212.97
2017-11-23T22:03:15.035Z,218.37
2017-11-23T22:05:43.585Z,201.93
2017-11-23T22:08:12.160Z,199.97
2017-11-23T22:10:39.973Z,200.47
2017-11-23T22:13:07.561Z,214.57
2017-11-23T22:15:35.262Z,225.83
2017-11-23T22:18:02.921Z,216.97
2017-11-23T22:20:31.081Z,216.73
2017-11-23T22:22:58.933Z,214.00
2017-11-23T22:25:27.032Z,210.27
2017-11-23T22:27:54.645Z,220.13
2017-11-23T22:30:22.407Z,216.07
2017-11-23T22:32:49.997Z,223.87
2017-11-23T22:35:18.483Z,207.93
2017-11-23T22:37:46.991Z,217.90
2017-11-23T22:40:14.829Z,234.17
2017-11-23T22:42:42.504Z,193.03
2017-11-23T22:45:10.093Z,206.57
2017-11-23T22:47:37.893Z,203.53
2017-11-23T22:50:05.500Z,212.27
2017-11-23T22:52:33.148Z,182.17
2017-11-23T22:55:00.721Z,172.43
2017-11-23T22:57:28.344Z,184.50
2017-11-23T22:59:55.985Z,190.60
2017-11-23T23:02:24.524Z,198.20
2017-11-23T23:04:52.176Z,191.47
2017-11-23T23:07:19.976Z,205.00
2017-11-23T23:09:47.771Z,197.50
2017-11-23T23:12:15.360Z,197.77
2017-11-23T23:14:42.917Z,195.52
2017-11-23T23:17:10.562Z,195.50
2017-11-23T23:19:38.126Z,198.10
2017-11-23T23:22:06.033Z,194.48
2017-11-23T23:24:33.733Z,190.20
2017-11-23T23:27:01.316Z,201.82
2017-11-23T23:29:29.148Z,201.62
2017-11-23T23:31:56.776Z,172.10
2017-11-23T23:34:24.411Z,165.88
2017-11-23T23:36:52.001Z,188.37
2017-11-23T23:39:19.632Z,175.83
2017-11-23T23:41:47.253Z,180.30
2017-11-23T23:44:15.073Z,182.70
2017-11-23T23:46:42.701Z,168.55
2017-11-23T23:49:11.269Z,165.98
2017-11-23T23:51:39.485Z,190.50
2017-11-23T23:54:07.676Z,192.32
2017-11-23T23:56:35.394Z,188.20
2017-11-23T23:59:03.751Z,198.85
